Time;durP1;ratioP1;P1;durP2;ratioP2;P2;SDS_P1;SDS_P2;PMS_P1;PMS_P2;Temp;Humidity;BMP_temperature;BMP_pressure;BME280_temperature;BME280_humidity;BME280_pressure;Samples;Min_cycle;Max_cycle;Signal;HPM_P1;HPM_P2
2023/06/04 00:00:37;;;;;;;6.28;2.00;;;;;;;21.35;37.97;98263.09;4439134;32;20057;-82
2023/06/04 00:03:04;;;;;;;4.37;1.80;;;;;;;21.89;37.54;98265.50;4439638;32;20103;-82
2023/06/04 00:05:32;;;;;;;9.00;1.98;;;;;;;22.09;36.95;98260.34;4439764;32;20130;-82
2023/06/04 00:07:58;;;;;;;7.18;2.42;;;;;;;21.99;37.44;98264.72;4439959;32;20072;-82
2023/06/04 00:10:47;;;;;;;7.53;2.37;;;;;;;21.83;37.65;98265.22;4439417;32;20057;-82
2023/06/04 00:13:15;;;;;;;7.55;1.80;;;;;;;21.97;37.94;98266.62;4439610;32;20074;-82
2023/06/04 00:15:42;;;;;;;3.55;1.62;;;;;;;22.22;37.24;98261.81;4439668;32;20109;-82
2023/06/04 00:18:10;;;;;;;7.40;1.90;;;;;;;22.53;36.49;98277.50;4439499;32;20066;-82
2023/06/04 00:20:37;;;;;;;5.30;1.80;;;;;;;22.36;37.38;98278.16;4439713;32;20077;-82
2023/06/04 00:23:05;;;;;;;5.87;2.00;;;;;;;21.88;37.98;98282.22;4439708;32;20073;-82
2023/06/04 00:25:31;;;;;;;9.27;2.95;;;;;;;21.19;39.30;98275.81;4439296;32;20066;-82
2023/06/04 00:27:58;;;;;;;7.10;2.17;;;;;;;21.55;39.11;98269.31;4439440;32;20050;-83
2023/06/04 00:30:31;;;;;;;4.78;1.80;;;;;;;21.77;38.72;98266.53;4439231;32;20063;-82
2023/06/04 00:32:59;;;;;;;7.93;1.90;;;;;;;21.54;39.31;98276.38;4439462;32;20094;-82
2023/06/04 00:35:26;;;;;;;7.43;1.80;;;;;;;22.16;38.71;98269.38;4439434;32;20129;-83
2023/06/04 00:37:53;;;;;;;7.47;1.92;;;;;;;21.57;39.14;98270.84;4439169;32;20111;-82
2023/06/04 00:40:47;;;;;;;5.35;1.83;;;;;;;21.66;39.02;98266.62;4439237;32;20066;-82
2023/06/04 00:43:14;;;;;;;5.80;1.92;;;;;;;22.71;36.93;98265.38;4439384;32;20188;-83
2023/06/04 00:45:42;;;;;;;4.68;2.20;;;;;;;22.43;37.69;98266.13;4439087;32;20082;-82
2023/06/04 00:48:09;;;;;;;5.10;1.87;;;;;;;22.48;37.78;98263.94;4439240;32;20054;-83
2023/06/04 00:50:38;;;;;;;5.40;2.10;;;;;;;22.35;37.84;98264.19;4439164;32;20102;-83
2023/06/04 00:53:05;;;;;;;5.43;2.30;;;;;;;22.50;37.57;98268.09;4426318;32;20067;-82
2023/06/04 00:55:32;;;;;;;6.57;1.90;;;;;;;22.76;37.20;98268.44;4439135;32;20122;-82
2023/06/04 00:58:00;;;;;;;6.55;1.95;;;;;;;23.27;36.51;98269.16;4439135;32;20050;-82
2023/06/04 01:00:27;;;;;;;6.90;2.20;;;;;;;23.22;36.84;98264.31;4438721;32;20062;-82
2023/06/04 01:02:55;;;;;;;5.32;2.00;;;;;;;22.89;37.48;98264.75;4439119;32;20074;-82
2023/06/04 01:05:42;;;;;;;5.32;1.90;;;;;;;22.69;37.74;98264.69;4438920;32;20082;-83
2023/06/04 01:08:12;;;;;;;7.28;1.90;;;;;;;22.58;37.93;98261.34;4426096;32;20068;-82
2023/06/04 01:10:51;;;;;;;5.47;1.77;;;;;;;22.93;37.29;98271.37;4438910;32;20093;-83
2023/06/04 01:13:18;;;;;;;8.27;2.17;;;;;;;23.23;36.86;98270.41;4440876;32;20082;-82
2023/06/04 01:15:45;;;;;;;6.62;1.85;;;;;;;23.47;36.39;98272.59;4436446;32;148033;-82
2023/06/04 01:18:27;;;;;;;4.37;1.92;;;;;;;22.66;37.58;98269.38;4440944;32;20057;-82
2023/06/04 01:20:59;;;;;;;8.02;1.80;;;;;;;22.51;38.57;98263.66;4429301;32;20145;-83
2023/06/04 01:23:46;;;;;;;5.85;1.87;;;;;;;21.59;40.87;98263.69;4428239;32;20127;-82
2023/06/04 01:26:13;;;;;;;9.13;2.20;;;;;;;21.70;41.45;98272.47;4441147;32;20078;-83
2023/06/04 01:29:23;;;;;;;5.15;1.87;;;;;;;21.52;42.99;98270.41;4440690;32;20157;-82
2023/06/04 01:31:52;;;;;;;8.38;2.17;;;;;;;21.69;42.84;98276.03;4441192;32;20057;-82
2023/06/04 01:34:19;;;;;;;6.07;2.10;;;;;;;22.07;41.84;98284.16;4440760;32;20098;-82
2023/06/04 01:36:46;;;;;;;6.32;2.95;;;;;;;21.47;43.95;98277.84;4440886;32;20074;-82
2023/06/04 01:40:08;;;;;;;3.90;1.85;;;;;;;21.99;42.69;98275.22;4440853;32;20105;-83
2023/06/04 01:42:35;;;;;;;6.18;2.00;;;;;;;22.56;40.38;98281.69;4440729;32;20049;-83
2023/06/04 01:45:02;;;;;;;6.37;2.17;;;;;;;21.62;41.53;98273.94;4440848;32;20126;-82
2023/06/04 01:47:30;;;;;;;5.55;2.25;;;;;;;21.32;42.45;98279.13;4440950;32;20088;-82
2023/06/04 01:50:19;;;;;;;7.12;1.92;;;;;;;21.62;42.36;98271.31;4440484;32;20066;-82
2023/06/04 01:52:46;;;;;;;7.12;1.90;;;;;;;21.15;43.27;98269.97;4440960;32;20099;-82
2023/06/04 01:55:15;;;;;;;5.68;1.90;;;;;;;21.19;40.63;98270.56;4440520;32;20114;-82
2023/06/04 01:57:43;;;;;;;5.75;1.95;;;;;;;19.76;44.86;98278.41;4440761;32;20109;-83
2023/06/04 02:00:27;;;;;;;7.62;2.25;;;;;;;20.66;43.41;98273.97;4440639;32;20077;-82
2023/06/04 02:02:55;;;;;;;6.07;2.20;;;;;;;21.28;43.15;98280.34;4440628;32;20110;-82
2023/06/04 02:05:23;;;;;;;5.62;2.15;;;;;;;20.98;44.67;98286.28;4440665;32;20117;-82
2023/06/04 02:07:51;;;;;;;6.62;2.12;;;;;;;20.42;46.15;98282.03;4440599;32;20074;-83
2023/06/04 02:10:26;;;;;;;5.78;1.73;;;;;;;20.04;45.04;98277.13;4440276;32;20098;-82
2023/06/04 02:13:02;;;;;;;4.07;1.70;;;;;;;21.06;40.00;98283.88;4440433;32;20109;-82
2023/06/04 02:15:30;;;;;;;3.83;1.80;;;;;;;20.86;39.65;98280.25;4440666;32;20081;-82
2023/06/04 02:18:00;;;;;;;6.97;1.90;;;;;;;20.22;40.18;98277.47;4440466;32;20185;-83
2023/06/04 02:20:48;;;;;;;4.35;1.70;;;;;;;20.15;40.33;98276.28;4427653;32;20097;-82
2023/06/04 02:23:17;;;;;;;5.35;1.70;;;;;;;20.40;40.06;98278.63;4440298;32;20094;-82
2023/06/04 02:25:45;;;;;;;6.03;1.80;;;;;;;20.61;40.79;98280.53;4440581;32;20120;-83
2023/06/04 02:28:23;;;;;;;3.50;1.60;;;;;;;20.38;40.22;98282.34;4440526;32;20078;-82
2023/06/04 02:30:50;;;;;;;3.85;1.70;;;;;;;21.31;38.46;98286.16;4440311;32;20121;-82
2023/06/04 02:33:17;;;;;;;3.35;1.60;;;;;;;21.31;38.30;98272.22;4440569;32;20070;-82
2023/06/04 02:35:44;;;;;;;4.40;1.65;;;;;;;21.43;38.29;98275.59;4440440;32;20139;-82
2023/06/04 02:38:18;;;;;;;7.90;1.62;;;;;;;20.39;39.50;98268.28;4439999;32;20118;-82
2023/06/04 02:40:45;;;;;;;6.68;1.73;;;;;;;19.62;40.83;98268.16;4440372;32;20066;-82
2023/06/04 02:43:12;;;;;;;3.47;1.37;;;;;;;19.89;39.90;98265.22;4439467;32;20127;-83
2023/06/04 02:45:39;;;;;;;4.90;1.60;;;;;;;20.81;38.39;98266.66;4440178;32;20105;-82
2023/06/04 02:48:06;;;;;;;3.28;1.30;;;;;;;20.39;39.26;98260.41;4440504;32;20088;-82
2023/06/04 02:50:33;;;;;;;5.97;1.70;;;;;;;20.56;38.91;98256.50;4440301;32;20066;-82
2023/06/04 02:53:00;;;;;;;5.60;1.80;;;;;;;20.42;39.23;98268.91;4440127;32;20107;-82
2023/06/04 02:55:27;;;;;;;3.97;1.40;;;;;;;20.03;40.21;98259.75;4440405;32;20079;-82
2023/06/04 02:57:54;;;;;;;4.97;1.30;;;;;;;19.73;40.62;98268.16;4440299;32;20105;-82
2023/06/04 03:00:21;;;;;;;4.15;1.50;;;;;;;19.57;40.99;98268.53;4440026;32;20110;-82
2023/06/04 03:02:48;;;;;;;5.00;1.60;;;;;;;19.62;40.80;98273.38;4440519;32;20081;-82
2023/06/04 03:05:17;;;;;;;5.90;1.50;;;;;;;19.31;41.92;98280.91;4440027;32;20077;-82
2023/06/04 03:07:46;;;;;;;4.10;1.40;;;;;;;19.60;41.18;98283.16;4440331;32;20069;-82
2023/06/04 03:10:22;;;;;;;3.97;1.58;;;;;;;20.09;40.47;98280.19;4440053;32;20088;-82
2023/06/04 03:12:49;;;;;;;3.70;1.45;;;;;;;19.89;40.91;98279.16;4439862;32;20099;-82
2023/06/04 03:15:16;;;;;;;4.80;1.70;;;;;;;20.19;40.04;98280.31;4440156;32;20074;-82
2023/06/04 03:17:44;;;;;;;3.87;1.30;;;;;;;20.34;39.66;98271.28;4440123;32;20105;-82
2023/06/04 03:20:23;;;;;;;6.70;1.77;;;;;;;19.68;41.46;98280.78;4439824;32;20122;-82
2023/06/04 03:22:51;;;;;;;5.35;1.55;;;;;;;19.76;41.37;98286.25;4440312;32;20102;-82
2023/06/04 03:25:18;;;;;;;6.55;1.58;;;;;;;20.09;40.99;98285.44;4427319;32;20117;-82
2023/06/04 03:27:45;;;;;;;4.22;1.40;;;;;;;19.49;42.17;98294.41;4427069;32;20085;-82
2023/06/04 03:30:35;;;;;;;5.70;1.70;;;;;;;20.38;41.59;98292.81;4439927;32;20098;-82
2023/06/04 03:33:02;;;;;;;5.35;1.58;;;;;;;20.86;40.87;98303.00;4440039;32;20112;-82
2023/06/04 03:35:29;;;;;;;5.80;1.60;;;;;;;20.67;41.42;98301.87;4439275;32;20078;-82
2023/06/04 03:37:56;;;;;;;7.90;1.85;;;;;;;21.48;40.53;98310.16;4440071;32;20101;-82
2023/06/04 03:43:07;;;;;;;7.37;1.60;;;;;;;21.64;42.06;98307.94;4440146;32;20057;-82
2023/06/04 03:45:34;;;;;;;5.45;1.90;;;;;;;21.11;43.71;98305.31;4439985;32;20096;-83
2023/06/04 03:48:01;;;;;;;7.03;2.47;;;;;;;21.11;43.31;98307.09;4439797;32;20116;-82
2023/06/04 03:50:45;;;;;;;4.53;1.70;;;;;;;21.00;43.03;98311.41;4439921;32;20069;-82
2023/06/04 03:53:12;;;;;;;4.78;1.90;;;;;;;21.55;42.36;98308.69;4440177;32;20115;-82
2023/06/04 03:55:39;;;;;;;4.07;1.60;;;;;;;21.30;42.24;98309.91;4439599;32;20121;-83
2023/06/04 03:58:09;;;;;;;6.78;1.90;;;;;;;21.14;42.09;98306.84;4439987;32;20070;-83
2023/06/04 04:00:36;;;;;;;5.78;1.83;;;;;;;21.39;41.65;98306.53;4439981;32;20070;-82
2023/06/04 04:03:03;;;;;;;8.93;2.00;;;;;;;22.15;39.97;98312.41;4439599;32;20118;-82
2023/06/04 04:05:30;;;;;;;5.25;2.10;;;;;;;22.35;39.58;98321.19;4439763;32;20111;-82
2023/06/04 04:07:57;;;;;;;7.37;2.08;;;;;;;22.50;41.25;98314.59;4439933;32;20114;-82
2023/06/04 04:11:02;;;;;;;7.43;2.10;;;;;;;22.17;43.58;98318.34;4439357;32;20077;-82
2023/06/04 04:13:29;;;;;;;6.85;2.00;;;;;;;20.87;43.61;98313.38;4424500;32;20118;-83
2023/06/04 04:15:56;;;;;;;3.80;1.60;;;;;;;21.60;41.87;98317.03;4424154;32;20110;-83
2023/06/04 04:22:46;;;;;;;5.37;1.80;;;;;;;22.92;37.20;98307.38;4418250;32;20077;-83
2023/06/04 04:25:16;;;;;;;3.67;1.50;;;;;;;22.29;37.46;98324.34;4424358;32;20096;-82
2023/06/04 04:27:43;;;;;;;6.80;1.80;;;;;;;20.53;40.61;98323.09;4424158;32;20120;-83
2023/06/04 04:30:19;;;;;;;3.78;1.40;;;;;;;20.02;41.50;98330.56;4423895;32;20122;-83
2023/06/04 04:32:48;;;;;;;4.78;1.87;;;;;;;20.05;43.98;98336.41;4424284;32;20072;-82
2023/06/04 04:37:58;;;;;;;8.77;1.95;;;;;;;19.44;48.14;98327.91;4436381;32;19958;-81
2023/06/04 04:40:25;;;;;;;9.50;1.90;;;;;;;19.79;47.43;98327.09;4437685;32;20077;-82
2023/06/04 04:42:52;;;;;;;5.93;1.80;;;;;;;20.03;48.44;98329.63;4437234;32;20097;-82
2023/06/04 04:45:20;;;;;;;8.88;2.80;;;;;;;20.07;46.32;98336.28;4446622;32;20097;-82
2023/06/04 04:47:47;;;;;;;6.22;1.87;;;;;;;20.37;45.42;98326.03;4454102;32;20061;-82
2023/06/04 04:50:14;;;;;;;4.72;1.60;;;;;;;20.27;46.67;98332.13;4453591;32;20057;-82
2023/06/04 04:52:41;;;;;;;6.75;1.83;;;;;;;20.02;47.64;98346.28;4454055;32;20077;-82
2023/06/04 04:55:09;;;;;;;6.55;1.90;;;;;;;20.66;47.44;98344.75;4454261;32;20061;-82
2023/06/04 04:57:36;;;;;;;9.23;2.00;;;;;;;20.91;49.48;98340.19;4453959;32;20097;-82
2023/06/04 05:00:07;;;;;;;3.83;1.70;;;;;;;20.69;51.20;98348.94;4454120;32;20062;-82
2023/06/04 05:02:35;;;;;;;6.62;2.22;;;;;;;19.80;52.92;98352.31;4454570;32;20073;-82
2023/06/04 05:05:03;;;;;;;7.35;1.80;;;;;;;20.13;54.01;98351.53;4454886;32;20107;-81
2023/06/04 05:07:30;;;;;;;5.32;1.70;;;;;;;20.43;51.42;98349.19;4454582;32;20115;-82
2023/06/04 05:09:58;;;;;;;10.80;1.75;;;;;;;20.37;51.23;98349.63;4454413;32;20120;-81
2023/06/04 05:12:26;;;;;;;7.22;1.95;;;;;;;19.69;53.85;98365.38;4454679;32;20058;-82
2023/06/04 05:14:53;;;;;;;4.97;1.77;;;;;;;20.26;52.81;98367.12;4455183;32;20081;-82
2023/06/04 05:17:29;;;;;;;4.53;1.70;;;;;;;20.32;52.03;98364.91;4454865;32;20088;-82
2023/06/04 05:20:11;;;;;;;3.63;1.50;;;;;;;20.44;52.22;98371.84;4455021;32;20065;-82
2023/06/04 05:22:39;;;;;;;6.00;1.70;;;;;;;20.27;49.68;98364.41;4455260;32;20134;-82
2023/06/04 05:25:08;;;;;;;4.55;1.75;;;;;;;19.84;51.18;98364.22;4455370;32;20089;-81
2023/06/04 05:27:35;;;;;;;4.90;1.73;;;;;;;20.31;50.05;98365.84;4455244;32;20077;-81
2023/06/04 05:30:03;;;;;;;6.62;1.60;;;;;;;19.77;52.96;98366.47;4454026;32;20781;-82
2023/06/04 05:32:32;;;;;;;5.70;1.70;;;;;;;20.14;51.71;98368.91;4441433;32;20066;-81
2023/06/04 05:34:59;;;;;;;5.15;1.85;;;;;;;20.04;49.43;98371.41;4453279;32;20130;-81
2023/06/04 05:37:27;;;;;;;4.45;1.55;;;;;;;19.89;50.34;98385.69;4452233;32;20100;-81
2023/06/04 05:39:55;;;;;;;5.18;1.90;;;;;;;19.51;50.99;98381.47;4449645;32;20097;-81
2023/06/04 05:42:23;;;;;;;7.18;1.92;;;;;;;18.87;56.37;98380.91;4434029;32;20069;-81
2023/06/04 05:44:50;;;;;;;10.70;2.00;;;;;;;18.37;60.96;98387.03;4448111;32;20141;-81
2023/06/04 05:47:18;;;;;;;6.40;1.95;;;;;;;17.99;62.07;98381.81;4446704;32;20454;-82
2023/06/04 05:49:45;;;;;;;8.05;1.90;;;;;;;18.55;61.77;98388.38;4447535;32;20057;-82
2023/06/04 05:52:12;;;;;;;7.43;2.85;;;;;;;18.35;63.32;98397.59;4447848;32;20057;-82
2023/06/04 05:54:39;;;;;;;8.63;3.10;;;;;;;18.39;66.70;98401.66;4448462;32;20789;-82
2023/06/04 05:57:06;;;;;;;9.25;2.78;;;;;;;16.86;75.36;98400.44;4448140;32;20066;-81
2023/06/04 05:59:33;;;;;;;10.77;2.83;;;;;;;17.08;75.28;98406.91;4448728;32;20109;-81
2023/06/04 06:02:00;;;;;;;7.57;3.00;;;;;;;16.23;81.18;98412.97;4449019;32;20102;-81
2023/06/04 06:04:27;;;;;;;10.23;3.70;;;;;;;16.87;77.68;98411.69;4448849;32;20053;-81
2023/06/04 06:06:55;;;;;;;12.23;4.07;;;;;;;17.35;73.65;98405.97;4448813;32;20090;-82
2023/06/04 06:09:23;;;;;;;10.25;3.60;;;;;;;17.43;73.70;98408.06;4446122;32;20105;-82
2023/06/04 06:11:50;;;;;;;11.95;4.03;;;;;;;17.51;77.00;98405.81;4448790;32;20085;-81
2023/06/04 06:14:17;;;;;;;11.25;4.40;;;;;;;17.85;71.59;98396.62;4448278;32;20062;-81
2023/06/04 06:16:45;;;;;;;11.07;4.15;;;;;;;17.58;75.74;98401.03;4446462;32;20110;-82
2023/06/04 06:19:12;;;;;;;13.50;4.07;;;;;;;17.82;75.38;98403.81;4447953;32;20073;-82
2023/06/04 06:21:39;;;;;;;12.65;5.62;;;;;;;18.12;73.52;98408.78;4447185;32;20141;-81
2023/06/04 06:24:06;;;;;;;9.43;3.90;;;;;;;17.72;74.92;98400.97;4447618;32;20120;-82
2023/06/04 06:26:33;;;;;;;11.35;4.07;;;;;;;18.07;72.46;98401.22;4447223;32;20105;-82
2023/06/04 06:29:00;;;;;;;11.02;4.05;;;;;;;17.43;76.77;98400.25;4446781;32;20114;-82
2023/06/04 06:31:27;;;;;;;10.13;3.75;;;;;;;16.83;78.24;98400.63;4448444;32;20101;-81
2023/06/04 06:33:54;;;;;;;12.52;4.80;;;;;;;16.06;84.30;98401.00;4449068;32;20124;-82
2023/06/04 06:36:21;;;;;;;11.63;4.35;;;;;;;16.79;80.09;98399.13;4445527;32;20105;-82
2023/06/04 06:38:48;;;;;;;11.77;4.20;;;;;;;17.15;79.20;98408.19;4447658;32;20110;-82
2023/06/04 06:41:15;;;;;;;9.77;3.22;;;;;;;17.03;80.69;98407.19;4448802;32;20089;-82
2023/06/04 06:43:42;;;;;;;11.57;3.35;;;;;;;16.65;75.66;98404.34;4448307;32;20111;-82
2023/06/04 06:46:09;;;;;;;10.52;3.50;;;;;;;16.58;79.23;98410.84;4448979;32;20109;-82
2023/06/04 06:48:36;;;;;;;10.07;3.50;;;;;;;15.72;83.19;98413.34;4448893;32;20105;-82
2023/06/04 06:51:03;;;;;;;11.10;3.90;;;;;;;15.16;91.11;98414.75;4447151;32;20104;-82
2023/06/04 06:53:30;;;;;;;12.68;4.47;;;;;;;15.55;91.07;98410.84;4445920;32;20081;-81
2023/06/04 06:55:57;;;;;;;10.90;4.30;;;;;;;15.10;95.93;98415.13;4446272;32;20089;-81
2023/06/04 06:58:24;;;;;;;11.65;4.07;;;;;;;15.13;96.26;98419.31;4445759;32;20075;-81
2023/06/04 07:00:51;;;;;;;13.40;5.03;;;;;;;14.85;95.40;98419.97;4446430;32;20065;-82
2023/06/04 07:03:18;;;;;;;16.42;4.93;;;;;;;15.49;92.01;98424.19;4433532;32;20054;-82
2023/06/04 07:05:46;;;;;;;14.80;4.40;;;;;;;15.16;94.04;98432.13;4445213;32;20434;-81
2023/06/04 07:08:12;;;;;;;13.30;4.95;;;;;;;15.06;95.02;98426.59;4446746;32;20083;-82
2023/06/04 07:10:40;;;;;;;12.82;5.57;;;;;;;14.45;95.54;98435.88;4446574;32;20085;-81
2023/06/04 07:13:06;;;;;;;13.82;5.15;;;;;;;14.04;98.62;98424.19;4447652;32;20113;-81
2023/06/04 07:15:33;;;;;;;11.00;4.93;;;;;;;14.83;95.26;98442.59;4448657;32;20093;-82
2023/06/04 07:18:00;;;;;;;12.37;4.28;;;;;;;15.31;92.89;98434.72;4447863;32;20101;-82
2023/06/04 07:20:27;;;;;;;11.95;4.43;;;;;;;15.91;88.94;98439.13;4448130;32;20542;-82
2023/06/04 07:22:54;;;;;;;11.77;4.00;;;;;;;15.60;88.52;98446.09;4447637;32;20065;-82
2023/06/04 07:25:23;;;;;;;10.15;4.25;;;;;;;14.65;94.01;98447.84;4446987;32;20105;-82
2023/06/04 07:27:50;;;;;;;10.63;3.60;;;;;;;15.18;91.35;98453.66;4447023;32;20093;-82
2023/06/04 07:30:18;;;;;;;11.48;4.03;;;;;;;14.68;95.07;98452.88;4446667;32;20130;-82
2023/06/04 07:32:48;;;;;;;10.07;4.15;;;;;;;14.20;98.36;98440.66;4445892;32;20050;-82
2023/06/04 07:35:15;;;;;;;9.55;3.53;;;;;;;14.38;96.82;98442.31;4447527;32;20102;-82
2023/06/04 07:37:44;;;;;;;10.40;3.42;;;;;;;14.60;93.70;98429.06;4448841;32;20104;-81
2023/06/04 07:40:12;;;;;;;10.10;3.45;;;;;;;14.72;94.53;98431.03;4449719;32;20097;-82
2023/06/04 07:42:40;;;;;;;12.07;4.10;;;;;;;13.99;97.10;98428.78;4450493;32;20071;-81
2023/06/04 07:45:07;;;;;;;11.25;3.67;;;;;;;13.85;99.17;98429.47;4450252;32;20098;-82
2023/06/04 07:47:37;;;;;;;8.63;2.83;;;;;;;14.03;100.00;98436.31;4449301;32;20129;-82
2023/06/04 07:50:05;;;;;;;10.45;3.60;;;;;;;14.43;94.84;98434.28;4448501;32;20069;-82
2023/06/04 07:52:33;;;;;;;9.38;3.45;;;;;;;14.18;97.83;98427.75;4448315;32;20080;-82
2023/06/04 07:55:01;;;;;;;9.50;2.90;;;;;;;14.18;97.24;98427.75;4448287;32;20069;-82
2023/06/04 07:57:27;;;;;;;8.60;3.05;;;;;;;13.76;98.36;98432.50;4446893;32;20128;-82
2023/06/04 07:59:56;;;;;;;9.27;3.30;;;;;;;14.65;95.07;98437.44;4444121;32;20070;-82
2023/06/04 08:02:23;;;;;;;7.78;3.08;;;;;;;14.39;95.75;98435.34;4444879;32;20147;-82
2023/06/04 08:04:50;;;;;;;8.20;2.90;;;;;;;15.25;93.23;98429.84;4444915;32;20742;-82
2023/06/04 08:07:17;;;;;;;9.60;2.90;;;;;;;14.67;94.83;98434.75;4443499;32;20136;-82
2023/06/04 08:09:45;;;;;;;8.52;2.58;;;;;;;14.83;93.80;98437.41;4443957;32;20104;-82
2023/06/04 08:12:12;;;;;;;8.55;2.75;;;;;;;14.73;91.16;98437.06;4444179;32;20082;-82
2023/06/04 08:14:39;;;;;;;8.52;2.97;;;;;;;15.34;88.01;98433.72;4444046;32;20142;-83
2023/06/04 08:17:06;;;;;;;8.82;2.75;;;;;;;15.60;87.70;98430.50;4443274;32;20158;-83
2023/06/04 08:19:38;;;;;;;9.07;2.67;;;;;;;15.57;86.57;98435.00;4441903;32;20162;-83
2023/06/04 08:22:06;;;;;;;10.63;3.00;;;;;;;15.58;89.33;98437.53;4442474;32;20073;-83
2023/06/04 08:24:33;;;;;;;7.43;2.70;;;;;;;15.89;89.33;98441.84;4441525;32;20097;-82
2023/06/04 08:27:00;;;;;;;8.15;2.80;;;;;;;15.86;84.45;98439.44;4441828;32;20195;-83
2023/06/04 08:29:27;;;;;;;7.40;2.67;;;;;;;16.51;85.39;98443.41;4441252;32;20140;-83
2023/06/04 08:31:54;;;;;;;8.52;2.50;;;;;;;16.26;81.64;98444.03;4442525;32;20462;-83
2023/06/04 08:34:21;;;;;;;9.07;3.12;;;;;;;15.97;83.39;98435.34;4442473;32;20142;-83
2023/06/04 08:36:48;;;;;;;6.75;2.58;;;;;;;16.93;81.09;98448.63;4427859;32;20121;-83
2023/06/04 08:39:15;;;;;;;7.43;2.22;;;;;;;17.43;78.52;98444.59;4442050;32;20420;-83
2023/06/04 08:41:44;;;;;;;5.85;2.17;;;;;;;17.71;77.92;98443.69;4441627;32;20141;-83
2023/06/04 08:44:11;;;;;;;7.07;2.28;;;;;;;17.82;72.19;98448.19;4442191;32;20109;-83
2023/06/04 08:46:39;;;;;;;4.95;2.00;;;;;;;18.35;72.50;98454.22;4442163;32;20137;-83
2023/06/04 08:49:08;;;;;;;5.20;2.00;;;;;;;18.42;70.64;98453.69;4442137;32;20104;-83
2023/06/04 08:51:40;;;;;;;6.37;1.98;;;;;;;18.16;73.29;98449.41;4442423;32;20062;-83
2023/06/04 08:54:08;;;;;;;6.00;1.83;;;;;;;17.90;70.32;98441.53;4441942;32;20097;-83
2023/06/04 08:56:36;;;;;;;5.43;2.00;;;;;;;18.76;67.68;98444.41;4441459;32;20123;-84
2023/06/04 08:59:07;;;;;;;7.10;2.00;;;;;;;19.39;66.83;98439.94;4441482;32;20081;-83
2023/06/04 09:01:36;;;;;;;5.70;2.00;;;;;;;19.51;63.17;98440.81;4442349;32;20074;-83
2023/06/04 09:04:05;;;;;;;7.97;2.30;;;;;;;19.76;64.09;98452.97;4442450;32;20141;-84
2023/06/04 09:06:37;;;;;;;5.57;1.95;;;;;;;19.52;63.70;98451.19;4443094;32;20442;-83
2023/06/04 09:09:07;;;;;;;5.78;1.90;;;;;;;20.40;60.86;98454.22;4442548;32;20428;-84
2023/06/04 09:11:36;;;;;;;5.72;2.05;;;;;;;20.35;61.67;98461.59;4442447;32;20073;-83
2023/06/04 09:14:12;;;;;;;5.68;1.73;;;;;;;20.15;62.41;98463.09;4428989;32;20105;-84
2023/06/04 09:16:54;;;;;;;6.60;1.98;;;;;;;20.08;61.82;98456.66;4428354;32;20129;-83
2023/06/04 09:19:22;;;;;;;6.47;1.80;;;;;;;20.61;59.65;98456.19;4429144;32;20097;-84
2023/06/04 09:21:56;;;;;;;6.20;2.08;;;;;;;21.13;56.42;98458.19;4445259;32;20107;-83
2023/06/04 09:24:46;;;;;;;5.75;1.70;;;;;;;22.20;53.59;98452.13;4448579;32;20147;-84
2023/06/04 09:27:17;;;;;;;4.55;1.77;;;;;;;21.90;50.65;98444.94;4445039;32;20101;-84
2023/06/04 09:29:54;;;;;;;4.20;1.40;;;;;;;22.74;50.47;98451.84;4442728;32;20101;-83
2023/06/04 09:32:27;;;;;;;;;;;;;;;23.15;46.13;98451.88;4443899;32;20081;-83
2023/06/04 09:35:13;;;;;;;4.20;1.85;;;;;;;23.06;46.84;98456.16;4445209;32;19977;-83
2023/06/04 09:37:41;;;;;;;5.80;2.00;;;;;;;22.77;47.94;98454.22;4444521;32;20162;-84
2023/06/04 09:40:09;;;;;;;6.50;2.17;;;;;;;22.52;49.06;98452.84;4444543;32;20099;-83
2023/06/04 09:42:43;;;;;;;6.35;2.15;;;;;;;22.94;48.45;98451.94;4444880;32;20103;-84
2023/06/04 09:45:11;;;;;;;5.35;2.00;;;;;;;22.58;51.17;98450.69;4444894;32;20143;-83
2023/06/04 09:47:42;;;;;;;6.50;1.80;;;;;;;21.51;52.43;98449.91;4445255;32;20098;-83
2023/06/04 09:50:12;;;;;;;7.07;2.00;;;;;;;21.84;51.27;98450.72;4445856;32;20108;-83
2023/06/04 09:52:39;;;;;;;5.43;1.75;;;;;;;22.23;49.22;98450.09;4446005;32;20057;-84
2023/06/04 09:55:19;;;;;;;6.30;2.12;;;;;;;22.07;50.64;98451.47;4446133;32;20628;-83
2023/06/04 09:57:50;;;;;;;7.32;1.90;;;;;;;21.52;51.06;98448.94;4446166;32;20145;-83
2023/06/04 10:00:27;;;;;;;7.37;2.03;;;;;;;21.92;50.77;98451.78;4445908;32;20100;-83
2023/06/04 10:02:59;;;;;;;5.72;1.90;;;;;;;21.23;52.74;98447.78;4447056;32;20527;-83
2023/06/04 10:05:33;;;;;;;5.75;1.95;;;;;;;21.79;52.44;98456.34;4447048;32;20120;-84
2023/06/04 10:08:05;;;;;;;6.10;1.70;;;;;;;22.17;51.76;98450.59;4446536;32;20077;-83
2023/06/04 10:10:34;;;;;;;4.95;1.98;;;;;;;21.41;51.82;98442.91;4448103;32;20105;-83
2023/06/04 10:13:10;;;;;;;5.28;2.03;;;;;;;22.17;49.97;98447.13;4447364;32;20122;-83
2023/06/04 10:15:37;;;;;;;5.78;2.15;;;;;;;22.68;50.72;98449.75;4434973;32;20170;-83
2023/06/04 10:18:04;;;;;;;4.82;2.00;;;;;;;21.66;53.88;98442.56;4434166;32;20117;-83
2023/06/04 10:20:31;;;;;;;5.07;1.92;;;;;;;21.00;56.60;98439.97;4433285;32;20093;-83
2023/06/04 10:22:59;;;;;;;5.18;1.75;;;;;;;21.24;54.04;98437.16;4446666;32;20158;-83
2023/06/04 10:25:26;;;;;;;6.80;2.08;;;;;;;20.72;55.11;98435.19;4433180;32;20121;-83
2023/06/04 10:27:53;;;;;;;5.37;2.00;;;;;;;21.02;55.96;98430.16;4446876;32;20053;-83
2023/06/04 10:30:20;;;;;;;6.85;2.17;;;;;;;21.16;58.07;98430.84;4446800;32;20577;-83
2023/06/04 10:32:47;;;;;;;6.28;2.10;;;;;;;21.24;55.77;98431.91;4446582;32;20124;-83
2023/06/04 10:35:15;;;;;;;4.43;1.70;;;;;;;21.74;53.46;98432.25;4445626;32;20112;-83
2023/06/04 10:37:42;;;;;;;5.03;1.75;;;;;;;21.76;56.82;98434.75;4445281;32;20142;-83
2023/06/04 10:40:09;;;;;;;6.60;2.20;;;;;;;21.94;55.73;98430.63;4445741;32;20093;-83
2023/06/04 10:42:42;;;;;;;7.43;2.00;;;;;;;22.61;53.01;98424.94;4431126;32;20083;-83
2023/06/04 10:45:10;;;;;;;5.72;1.83;;;;;;;22.92;53.45;98425.78;4449497;32;20058;-83
2023/06/04 10:47:40;;;;;;;5.07;2.00;;;;;;;23.62;48.80;98421.38;4449388;32;20146;-84
2023/06/04 10:50:10;;;;;;;6.20;1.90;;;;;;;24.47;47.01;98425.84;4447064;32;20061;-84
2023/06/04 10:52:39;;;;;;;6.03;2.00;;;;;;;24.43;47.83;98424.44;4447410;32;20081;-83
2023/06/04 10:55:08;;;;;;;5.95;2.03;;;;;;;25.04;44.79;98423.94;4447974;32;20108;-83
2023/06/04 10:57:36;;;;;;;5.25;1.83;;;;;;;24.91;47.17;98426.06;4448226;32;20542;-83
2023/06/04 11:00:09;;;;;;;4.18;1.80;;;;;;;24.94;47.02;98426.59;4445531;32;20115;-83
2023/06/04 11:02:42;;;;;;;6.00;2.00;;;;;;;24.52;46.58;98434.97;4444607;32;20099;-83
2023/06/04 11:05:09;;;;;;;4.15;1.60;;;;;;;25.02;43.09;98434.66;4433795;32;20121;-83
2023/06/04 11:07:48;;;;;;;7.05;2.00;;;;;;;26.37;42.11;98437.22;4450427;32;20089;-83
2023/06/04 11:10:17;;;;;;;5.75;2.10;;;;;;;26.25;43.69;98434.00;4445684;32;20141;-83
2023/06/04 11:12:44;;;;;;;7.00;3.05;;;;;;;25.06;45.78;98428.09;4445403;32;20109;-84
2023/06/04 11:15:12;;;;;;;4.62;1.95;;;;;;;25.07;44.66;98419.19;4445679;32;20440;-84
2023/06/04 11:17:52;;;;;;;5.93;1.87;;;;;;;24.60;48.38;98426.34;4445766;32;20165;-83
2023/06/04 11:20:20;;;;;;;4.37;1.80;;;;;;;26.04;44.02;98418.47;4444965;32;20105;-83
2023/06/04 11:22:55;;;;;;;4.37;1.95;;;;;;;;;;4446107;32;20079;-83
2023/06/04 11:25:26;;;;;;;9.55;2.17;;;;;;;26.52;42.42;98425.09;4445462;32;20156;-83
2023/06/04 11:27:54;;;;;;;7.22;2.60;;;;;;;26.44;41.43;98415.28;4444247;32;20065;-83
2023/06/04 11:30:21;;;;;;;5.68;2.37;;;;;;;26.76;40.60;98422.56;4444697;32;20103;-83
2023/06/04 11:32:49;;;;;;;6.28;2.20;;;;;;;27.42;38.38;98417.50;4444924;32;20080;-83
2023/06/04 11:35:16;;;;;;;5.97;2.30;;;;;;;26.35;38.12;98410.09;4445238;32;20102;-83
2023/06/04 11:37:53;;;;;;;6.47;2.20;;;;;;;27.31;37.22;98410.69;4447842;32;20097;-83
2023/06/04 11:40:20;;;;;;;;;;;;;;;27.72;35.99;98402.81;4449304;32;20069;-84
2023/06/04 11:42:47;;;;;;;7.55;2.35;;;;;;;28.70;34.65;98414.13;4447098;32;19992;-84
2023/06/04 11:45:18;;;;;;;5.68;2.20;;;;;;;29.33;32.77;98408.69;4447763;32;20116;-83
2023/06/04 11:47:53;;;;;;;5.50;2.17;;;;;;;29.27;32.41;98411.25;4444726;32;20065;-83
2023/06/04 11:50:27;;;;;;;5.97;2.12;;;;;;;28.62;33.08;98411.53;4444534;32;20176;-83
2023/06/04 11:52:54;;;;;;;4.28;2.10;;;;;;;28.88;32.48;98419.22;4444394;32;20738;-83
2023/06/04 11:55:21;;;;;;;7.00;2.67;;;;;;;27.93;34.78;98411.94;4444399;32;20146;-83